DOF/210920 0808Z

 METAR AND TAF INFORMATION
METAR FOR EDLW
ADDS - METARS form results

(0808 UTC 20 September 2021)
Data provider http://aviationweather.gov/metar/data/
 
METAR text: EDLW 200750Z 04005KT CAVOK 13/06 Q1020
Conditions at: EDLW (DORTMUND/WICKEDE, DE) observed 0750 UTC 20 September 2021
Temperature: 13.0°C (55°F)
Dewpoint: 6.0°C (43°F) [RH = 62%]
Pressure (altimeter): 30.12 inches Hg (1020.0 mb)
Winds: from the NE (40 degrees) at 6 MPH (5 knots; 2.6 m/s)
Visibility: 6 or more miles (10+ km)
Ceiling: ceiling and visibility are OK
Clouds: unknown
Weather: no significant weather observed at this time

METAR text: EDLW 200720Z 08007KT 040V110 CAVOK 12/06 Q1020
Conditions at: EDLW (DORTMUND/WICKEDE, DE) observed 0720 UTC 20 September 2021
Temperature: 12.0°C (54°F)
Dewpoint: 6.0°C (43°F) [RH = 67%]
Pressure (altimeter): 30.12 inches Hg (1020.0 mb)
Winds: from the E (80 degrees) at 8 MPH (7 knots; 3.6 m/s)
Visibility: 6 or more miles (10+ km)
Ceiling: ceiling and visibility are OK
Clouds: unknown
Weather: no significant weather observed at this time

Forecast for: EDLW (DORTMUND/WICKEDE, DE)
Text: TAF EDLW 200500Z 2006/2106 07005KT 9999 BKN040
Forecast period: 0600 to 1800 UTC 20 September 2021
Forecast type: FROM: standard forecast or significant change
Winds: from the ENE (70 degrees) at 6 MPH (5 knots; 2.6 m/s)
Visibility: 6 or more miles (10+ km)
Ceiling: 4000 feet AGL
Clouds: broken clouds at 4000 feet AGL
Weather: no significant weather forecast for this period
Text: BECMG 2018/2021 14004KT
Forecast period: 1800 UTC 20 September 2021 to 0600 UTC 21 September 2021
Forecast type: BECOMING: Conditions expected to become as follows by 2100 UTC 20 September 2021
Winds: from the SE (140 degrees) at 5 MPH (4 knots; 2.1 m/s)
Visibility: 6 or more miles (10+ km)
Ceiling: 4000 feet AGL
Clouds: broken clouds at 4000 feet AGL
Weather: no significant weather forecast for this period

 AIRPORT MAP

 RUNWAY INFORMATION
Runway 06 Runway length 6562 ft Runway width 148 ft
Runway elevation 418 ft Runway displaced threshold 984 ft Runway heading 61
Runway 24 Runway length 6562 ft Runway width 148 ft
Runway elevation 401 ft Runway displaced threshold 984 ft Runway heading 241

 AIRPORT FREQUENCIES
Type AFIS Name LANGEN INF Frequency 129.875 MHZ
Type APP Name LANGEN RAD Frequency 125.225 MHZ
Type ATIS Name ATIS Frequency 125.125 MHZ
Type GND Name GND Frequency 121.825 MHZ
Type TWR Name TWR Frequency 134.175 MHZ

 AIRPORT NEAR NAVIGATION AIDS
Type VOR-DME Name Dortmund Frequency 112700 KHZ
Type VOR-DME Name Wickede Frequency 108650 KHZ
Type NDB Name Dortmund Frequency 357 KHZ







No Copyright © 2021 Mickey Virtual Airlines - You can copy whatever you want, but only one can be the original.

Powered by Virtual Airlines Manager